sensor_id;sensor_type;location;lat;lon;timestamp;pressure;altitude;pressure_sealevel;temperature;humidity
58473;BME280;44775;51.564;5.460;2023-06-14T00:01:58;101154.78;;;19.07;47.73
58473;BME280;44775;51.564;5.460;2023-06-14T00:04:23;101156.28;;;18.96;48.80
58473;BME280;44775;51.564;5.460;2023-06-14T00:06:50;101163.09;;;19.05;48.19
58473;BME280;44775;51.564;5.460;2023-06-14T00:09:15;101159.31;;;18.75;45.90
58473;BME280;44775;51.564;5.460;2023-06-14T00:11:43;101166.16;;;18.71;46.51
58473;BME280;44775;51.564;5.460;2023-06-14T00:14:09;101163.25;;;18.72;46.77
58473;BME280;44775;51.564;5.460;2023-06-14T00:16:34;101146.19;;;18.65;48.34
58473;BME280;44775;51.564;5.460;2023-06-14T00:19:03;101163.59;;;18.31;45.91
58473;BME280;44775;51.564;5.460;2023-06-14T00:21:30;101161.69;;;18.38;47.26
58473;BME280;44775;51.564;5.460;2023-06-14T00:23:56;101164.59;;;18.43;49.54
58473;BME280;44775;51.564;5.460;2023-06-14T00:26:22;101160.28;;;18.15;45.87
58473;BME280;44775;51.564;5.460;2023-06-14T00:28:47;101165.91;;;18.21;46.13
58473;BME280;44775;51.564;5.460;2023-06-14T00:31:12;101168.00;;;18.05;45.60
58473;BME280;44775;51.564;5.460;2023-06-14T00:33:37;101166.34;;;18.04;45.07
58473;BME280;44775;51.564;5.460;2023-06-14T00:36:03;101173.84;;;18.02;46.34
58473;BME280;44775;51.564;5.460;2023-06-14T00:38:28;101172.16;;;17.94;45.20
58473;BME280;44775;51.564;5.460;2023-06-14T00:40:54;101168.84;;;18.12;49.34
58473;BME280;44775;51.564;5.460;2023-06-14T00:43:19;101171.31;;;18.07;46.64
58473;BME280;44775;51.564;5.460;2023-06-14T00:45:44;101171.72;;;18.17;47.07
58473;BME280;44775;51.564;5.460;2023-06-14T00:48:10;101171.72;;;18.17;48.87
58473;BME280;44775;51.564;5.460;2023-06-14T00:50:36;101179.66;;;18.12;44.22
58473;BME280;44775;51.564;5.460;2023-06-14T00:53:03;101175.47;;;18.23;46.33
58473;BME280;44775;51.564;5.460;2023-06-14T00:55:29;101173.63;;;18.10;47.44
58473;BME280;44775;51.564;5.460;2023-06-14T00:57:55;101167.41;;;17.90;43.81
58473;BME280;44775;51.564;5.460;2023-06-14T01:00:21;101168.19;;;18.17;46.72
58473;BME280;44775;51.564;5.460;2023-06-14T01:02:47;101167.56;;;18.08;44.99
58473;BME280;44775;51.564;5.460;2023-06-14T01:05:13;101171.34;;;18.01;44.81
58473;BME280;44775;51.564;5.460;2023-06-14T01:08:24;101171.34;;;17.94;44.39
58473;BME280;44775;51.564;5.460;2023-06-14T01:11:05;101180.09;;;17.96;44.87
58473;BME280;44775;51.564;5.460;2023-06-14T01:13:34;101180.09;;;17.96;45.51
58473;BME280;44775;51.564;5.460;2023-06-14T01:16:01;101169.47;;;17.88;44.43
58473;BME280;44775;51.564;5.460;2023-06-14T01:18:28;101172.16;;;17.75;45.30
58473;BME280;44775;51.564;5.460;2023-06-14T01:20:55;101177.13;;;17.71;44.96
58473;BME280;44775;51.564;5.460;2023-06-14T01:23:22;101174.66;;;17.63;44.03
58473;BME280;44775;51.564;5.460;2023-06-14T01:25:48;101180.44;;;17.46;44.17
58473;BME280;44775;51.564;5.460;2023-06-14T01:28:19;101171.94;;;17.50;46.53
58473;BME280;44775;51.564;5.460;2023-06-14T01:30:48;101166.31;;;17.44;44.09
58473;BME280;44775;51.564;5.460;2023-06-14T01:33:19;101183.34;;;17.38;44.26
58473;BME280;44775;51.564;5.460;2023-06-14T01:35:46;101177.94;;;17.32;45.15
58473;BME280;44775;51.564;5.460;2023-06-14T01:38:13;101172.97;;;17.42;45.68
58473;BME280;44775;51.564;5.460;2023-06-14T01:40:39;101177.72;;;17.27;44.69
58473;BME280;44775;51.564;5.460;2023-06-14T01:43:05;101167.72;;;17.20;44.90
58473;BME280;44775;51.564;5.460;2023-06-14T01:45:32;101173.81;;;17.42;46.69
58473;BME280;44775;51.564;5.460;2023-06-14T01:47:58;101164.81;;;17.15;44.87
58473;BME280;44775;51.564;5.460;2023-06-14T01:50:28;101175.03;;;17.40;45.10
58473;BME280;44775;51.564;5.460;2023-06-14T01:52:53;101173.13;;;17.27;44.71
58473;BME280;44775;51.564;5.460;2023-06-14T01:55:19;101177.09;;;17.25;44.66
58473;BME280;44775;51.564;5.460;2023-06-14T01:57:46;101170.88;;;17.37;47.45
58473;BME280;44775;51.564;5.460;2023-06-14T02:00:13;101172.50;;;17.18;45.02
58473;BME280;44775;51.564;5.460;2023-06-14T02:02:39;101172.09;;;17.21;45.07
58473;BME280;44775;51.564;5.460;2023-06-14T02:05:05;101169.38;;;17.15;45.47
58473;BME280;44775;51.564;5.460;2023-06-14T02:07:30;101167.50;;;17.09;45.62
58473;BME280;44775;51.564;5.460;2023-06-14T02:09:56;101178.69;;;16.99;45.59
58473;BME280;44775;51.564;5.460;2023-06-14T02:12:21;101173.03;;;16.94;45.58
58473;BME280;44775;51.564;5.460;2023-06-14T02:14:46;101169.56;;;17.13;49.17
58473;BME280;44775;51.564;5.460;2023-06-14T02:17:12;101167.88;;;16.99;46.58
58473;BME280;44775;51.564;5.460;2023-06-14T02:19:37;101171.38;;;16.93;46.43
58473;BME280;44775;51.564;5.460;2023-06-14T02:22:02;101170.97;;;16.89;46.18
58473;BME280;44775;51.564;5.460;2023-06-14T02:24:28;101178.63;;;16.86;46.29
58473;BME280;44775;51.564;5.460;2023-06-14T02:26:53;101177.13;;;16.76;47.39
58473;BME280;44775;51.564;5.460;2023-06-14T02:29:18;101170.63;;;16.64;47.17
58473;BME280;44775;51.564;5.460;2023-06-14T02:31:43;101176.25;;;16.69;47.63
58473;BME280;44775;51.564;5.460;2023-06-14T02:34:09;101178.09;;;16.62;47.22
58473;BME280;44775;51.564;5.460;2023-06-14T02:36:35;101180.38;;;16.65;47.50
58473;BME280;44775;51.564;5.460;2023-06-14T02:39:00;101183.84;;;16.52;47.50
58473;BME280;44775;51.564;5.460;2023-06-14T02:41:26;101176.75;;;16.45;47.55
58473;BME280;44775;51.564;5.460;2023-06-14T02:43:52;101192.53;;;16.48;47.87
58473;BME280;44775;51.564;5.460;2023-06-14T02:46:17;101181.06;;;16.39;48.45
58473;BME280;44775;51.564;5.460;2023-06-14T02:48:43;101181.69;;;16.35;48.12
58473;BME280;44775;51.564;5.460;2023-06-14T02:51:08;101191.81;;;16.33;48.05
58473;BME280;44775;51.564;5.460;2023-06-14T02:53:35;101186.19;;;16.27;48.33
58473;BME280;44775;51.564;5.460;2023-06-14T02:56:00;101185.75;;;16.24;48.84
58473;BME280;44775;51.564;5.460;2023-06-14T02:58:26;101193.03;;;16.23;48.76
58473;BME280;44775;51.564;5.460;2023-06-14T03:00:52;101186.16;;;16.21;48.70
58473;BME280;44775;51.564;5.460;2023-06-14T03:03:20;101187.06;;;16.35;48.92
58473;BME280;44775;51.564;5.460;2023-06-14T03:05:47;101192.03;;;16.31;48.62
58473;BME280;44775;51.564;5.460;2023-06-14T03:08:17;101187.38;;;16.18;48.74
58473;BME280;44775;51.564;5.460;2023-06-14T03:10:45;101190.03;;;16.12;48.97
58473;BME280;44775;51.564;5.460;2023-06-14T03:13:11;101201.03;;;16.10;50.75
58473;BME280;44775;51.564;5.460;2023-06-14T03:15:37;101185.69;;;16.11;50.76
58473;BME280;44775;51.564;5.460;2023-06-14T03:18:03;101202.78;;;16.24;51.61
58473;BME280;44775;51.564;5.460;2023-06-14T03:20:29;101195.63;;;16.10;50.73
58473;BME280;44775;51.564;5.460;2023-06-14T03:22:58;101205.50;;;16.03;49.91
58473;BME280;44775;51.564;5.460;2023-06-14T03:25:23;101199.22;;;15.96;49.96
58473;BME280;44775;51.564;5.460;2023-06-14T03:27:49;101196.53;;;15.96;50.31
58473;BME280;44775;51.564;5.460;2023-06-14T03:30:14;101206.53;;;16.02;49.95
58473;BME280;44775;51.564;5.460;2023-06-14T03:32:39;101205.00;;;15.93;50.23
58473;BME280;44775;51.564;5.460;2023-06-14T03:35:05;101206.25;;;15.90;50.24
58473;BME280;44775;51.564;5.460;2023-06-14T03:37:31;101197.47;;;15.81;50.87
58473;BME280;44775;51.564;5.460;2023-06-14T03:39:56;101204.00;;;15.72;50.97
58473;BME280;44775;51.564;5.460;2023-06-14T03:42:21;101207.03;;;15.84;52.06
58473;BME280;44775;51.564;5.460;2023-06-14T03:44:47;101210.06;;;15.74;51.17
58473;BME280;44775;51.564;5.460;2023-06-14T03:47:12;101204.44;;;15.76;51.45
58473;BME280;44775;51.564;5.460;2023-06-14T03:49:37;101214.78;;;15.72;51.51
58473;BME280;44775;51.564;5.460;2023-06-14T03:52:03;101215.44;;;15.74;52.13
58473;BME280;44775;51.564;5.460;2023-06-14T03:54:28;101214.25;;;15.62;52.21
58473;BME280;44775;51.564;5.460;2023-06-14T03:56:54;101219.72;;;15.69;53.98
58473;BME280;44775;51.564;5.460;2023-06-14T03:59:19;101220.97;;;15.66;52.62
58473;BME280;44775;51.564;5.460;2023-06-14T04:01:45;101218.06;;;15.68;52.78
58473;BME280;44775;51.564;5.460;2023-06-14T04:04:11;101214.16;;;15.70;54.90
58473;BME280;44775;51.564;5.460;2023-06-14T04:06:37;101215.94;;;15.63;53.16
58473;BME280;44775;51.564;5.460;2023-06-14T04:09:02;101215.22;;;15.54;53.86
58473;BME280;44775;51.564;5.460;2023-06-14T04:11:30;101223.88;;;15.50;53.98
58473;BME280;44775;51.564;5.460;2023-06-14T04:13:56;101225.16;;;15.54;53.84
58473;BME280;44775;51.564;5.460;2023-06-14T04:16:22;101231.66;;;15.59;54.88
58473;BME280;44775;51.564;5.460;2023-06-14T04:18:47;101233.75;;;15.64;53.83
58473;BME280;44775;51.564;5.460;2023-06-14T04:21:13;101230.50;;;15.69;54.24
58473;BME280;44775;51.564;5.460;2023-06-14T04:23:38;101236.16;;;15.74;54.41
58473;BME280;44775;51.564;5.460;2023-06-14T04:26:04;101232.06;;;15.78;54.03
58473;BME280;44775;51.564;5.460;2023-06-14T04:28:29;101235.41;;;15.80;53.71
58473;BME280;44775;51.564;5.460;2023-06-14T04:30:55;101245.59;;;15.85;53.78
58473;BME280;44775;51.564;5.460;2023-06-14T04:33:20;101248.94;;;15.87;53.63
58473;BME280;44775;51.564;5.460;2023-06-14T04:35:45;101247.19;;;15.79;54.15
58473;BME280;44775;51.564;5.460;2023-06-14T04:38:12;101239.66;;;15.96;54.22
58473;BME280;44775;51.564;5.460;2023-06-14T04:40:38;101238.16;;;15.87;53.89
58473;BME280;44775;51.564;5.460;2023-06-14T04:43:08;101242.13;;;15.91;53.78
58473;BME280;44775;51.564;5.460;2023-06-14T04:45:33;101245.31;;;16.01;53.99
58473;BME280;44775;51.564;5.460;2023-06-14T04:47:59;101241.84;;;16.07;54.07
58473;BME280;44775;51.564;5.460;2023-06-14T04:50:25;101247.34;;;16.20;55.08
58473;BME280;44775;51.564;5.460;2023-06-14T04:52:50;101240.91;;;16.21;53.81
58473;BME280;44775;51.564;5.460;2023-06-14T04:55:16;101253.56;;;16.21;53.97
58473;BME280;44775;51.564;5.460;2023-06-14T04:57:42;101254.88;;;16.32;53.58
58473;BME280;44775;51.564;5.460;2023-06-14T05:00:08;101248.63;;;16.24;53.31
58473;BME280;44775;51.564;5.460;2023-06-14T05:02:34;101253.03;;;16.32;54.12
58473;BME280;44775;51.564;5.460;2023-06-14T05:05:00;101256.19;;;16.42;54.00
58473;BME280;44775;51.564;5.460;2023-06-14T05:07:26;101255.47;;;16.55;54.25
58473;BME280;44775;51.564;5.460;2023-06-14T05:09:52;101260.72;;;16.70;54.13
58473;BME280;44775;51.564;5.460;2023-06-14T05:12:17;101261.06;;;16.82;53.11
58473;BME280;44775;51.564;5.460;2023-06-14T05:14:45;101258.16;;;16.90;51.95
58473;BME280;44775;51.564;5.460;2023-06-14T05:17:11;101267.53;;;16.94;52.45
58473;BME280;44775;51.564;5.460;2023-06-14T05:19:36;101259.34;;;17.15;51.04
58473;BME280;44775;51.564;5.460;2023-06-14T05:22:01;101259.06;;;17.04;51.79
58473;BME280;44775;51.564;5.460;2023-06-14T05:24:28;101270.16;;;17.22;53.63
58473;BME280;44775;51.564;5.460;2023-06-14T05:26:55;101267.88;;;17.19;51.95
58473;BME280;44775;51.564;5.460;2023-06-14T05:29:20;101271.44;;;17.33;51.45
58473;BME280;44775;51.564;5.460;2023-06-14T05:31:46;101266.88;;;17.40;51.67
58473;BME280;44775;51.564;5.460;2023-06-14T05:34:11;101267.13;;;17.45;50.44
58473;BME280;44775;51.564;5.460;2023-06-14T05:36:36;101280.03;;;17.56;50.23
58473;BME280;44775;51.564;5.460;2023-06-14T05:39:02;101271.97;;;17.69;49.78
58473;BME280;44775;51.564;5.460;2023-06-14T05:41:28;101272.03;;;17.96;49.29
58473;BME280;44775;51.564;5.460;2023-06-14T05:43:54;101282.22;;;18.21;48.93
58473;BME280;44775;51.564;5.460;2023-06-14T05:46:20;101272.00;;;18.42;48.41
58473;BME280;44775;51.564;5.460;2023-06-14T05:48:49;101290.72;;;18.64;47.49
58473;BME280;44775;51.564;5.460;2023-06-14T05:51:14;101294.41;;;18.96;47.30
58473;BME280;44775;51.564;5.460;2023-06-14T05:53:44;101299.34;;;19.13;46.55
58473;BME280;44775;51.564;5.460;2023-06-14T05:56:09;101297.34;;;19.40;46.66
58473;BME280;44775;51.564;5.460;2023-06-14T05:58:34;101295.63;;;19.52;46.23
58473;BME280;44775;51.564;5.460;2023-06-14T06:01:00;101295.13;;;19.75;45.68
58473;BME280;44775;51.564;5.460;2023-06-14T06:03:26;101304.81;;;19.89;44.44
58473;BME280;44775;51.564;5.460;2023-06-14T06:05:54;101294.03;;;20.08;44.40
58473;BME280;44775;51.564;5.460;2023-06-14T06:08:19;101302.34;;;20.13;43.48
58473;BME280;44775;51.564;5.460;2023-06-14T06:10:45;101304.53;;;20.29;43.01
58473;BME280;44775;51.564;5.460;2023-06-14T06:13:10;101288.81;;;20.31;43.65
58473;BME280;44775;51.564;5.460;2023-06-14T06:15:35;101302.63;;;20.29;43.00
58473;BME280;44775;51.564;5.460;2023-06-14T06:18:02;101314.69;;;20.34;43.31
58473;BME280;44775;51.564;5.460;2023-06-14T06:20:28;101307.94;;;20.68;42.61
58473;BME280;44775;51.564;5.460;2023-06-14T06:22:57;101314.50;;;20.79;42.99
58473;BME280;44775;51.564;5.460;2023-06-14T06:25:23;101308.34;;;20.90;42.62
58473;BME280;44775;51.564;5.460;2023-06-14T06:27:54;101324.28;;;21.23;41.72
58473;BME280;44775;51.564;5.460;2023-06-14T06:30:19;101322.91;;;21.81;41.50
58473;BME280;44775;51.564;5.460;2023-06-14T06:32:45;101320.56;;;21.96;40.22
58473;BME280;44775;51.564;5.460;2023-06-14T06:35:11;101329.34;;;22.10;39.76
58473;BME280;44775;51.564;5.460;2023-06-14T06:37:38;101325.63;;;22.23;39.56
58473;BME280;44775;51.564;5.460;2023-06-14T06:40:04;101330.50;;;22.44;39.30
58473;BME280;44775;51.564;5.460;2023-06-14T06:42:31;101338.78;;;22.37;38.93
58473;BME280;44775;51.564;5.460;2023-06-14T06:44:56;101332.97;;;22.34;39.02
58473;BME280;44775;51.564;5.460;2023-06-14T06:47:21;101337.03;;;22.55;39.09
58473;BME280;44775;51.564;5.460;2023-06-14T06:49:47;101351.72;;;23.01;38.51
58473;BME280;44775;51.564;5.460;2023-06-14T06:52:13;101345.09;;;23.08;37.59
58473;BME280;44775;51.564;5.460;2023-06-14T06:54:38;101359.31;;;22.75;37.47
58473;BME280;44775;51.564;5.460;2023-06-14T06:57:04;101351.69;;;22.54;38.12
58473;BME280;44775;51.564;5.460;2023-06-14T06:59:31;101354.91;;;22.39;38.85
58473;BME280;44775;51.564;5.460;2023-06-14T07:01:56;101360.69;;;22.54;38.44
58473;BME280;44775;51.564;5.460;2023-06-14T07:04:21;101362.75;;;22.59;39.15
58473;BME280;44775;51.564;5.460;2023-06-14T07:06:47;101359.28;;;22.87;38.51
58473;BME280;44775;51.564;5.460;2023-06-14T07:09:13;101366.66;;;22.86;37.78
58473;BME280;44775;51.564;5.460;2023-06-14T07:11:39;101365.56;;;23.23;37.59
58473;BME280;44775;51.564;5.460;2023-06-14T07:14:05;101361.16;;;23.33;37.18
58473;BME280;44775;51.564;5.460;2023-06-14T07:16:31;101366.50;;;23.28;37.27
58473;BME280;44775;51.564;5.460;2023-06-14T07:18:56;101370.28;;;23.27;36.89
58473;BME280;44775;51.564;5.460;2023-06-14T07:21:21;101375.41;;;23.24;37.14
58473;BME280;44775;51.564;5.460;2023-06-14T07:23:47;101376.34;;;23.29;37.07
58473;BME280;44775;51.564;5.460;2023-06-14T07:26:12;101386.31;;;23.24;36.86
58473;BME280;44775;51.564;5.460;2023-06-14T07:28:37;101377.59;;;23.39;36.93
58473;BME280;44775;51.564;5.460;2023-06-14T07:31:03;101368.91;;;23.13;37.28
58473;BME280;44775;51.564;5.460;2023-06-14T07:33:28;101377.88;;;23.37;37.52
58473;BME280;44775;51.564;5.460;2023-06-14T07:35:53;101380.94;;;23.41;36.95
58473;BME280;44775;51.564;5.460;2023-06-14T07:38:19;101380.50;;;23.72;36.42
58473;BME280;44775;51.564;5.460;2023-06-14T07:40:44;101387.44;;;23.92;36.07
58473;BME280;44775;51.564;5.460;2023-06-14T07:43:09;101395.09;;;23.78;36.22
58473;BME280;44775;51.564;5.460;2023-06-14T07:45:35;101396.97;;;23.66;36.30
58473;BME280;44775;51.564;5.460;2023-06-14T07:48:00;101396.25;;;23.82;36.25
58473;BME280;44775;51.564;5.460;2023-06-14T07:50:25;101394.34;;;23.83;36.20
58473;BME280;44775;51.564;5.460;2023-06-14T07:52:51;101397.75;;;24.18;35.85
58473;BME280;44775;51.564;5.460;2023-06-14T07:55:16;101412.84;;;24.38;35.19
58473;BME280;44775;51.564;5.460;2023-06-14T07:57:41;101409.66;;;24.29;34.98
58473;BME280;44775;51.564;5.460;2023-06-14T08:00:08;101408.34;;;24.32;35.42
58473;BME280;44775;51.564;5.460;2023-06-14T08:02:35;101411.50;;;24.23;35.68
58473;BME280;44775;51.564;5.460;2023-06-14T08:05:00;101403.31;;;23.95;35.54
58473;BME280;44775;51.564;5.460;2023-06-14T08:07:26;101421.06;;;24.09;35.39
58473;BME280;44775;51.564;5.460;2023-06-14T08:09:51;101411.50;;;23.95;36.19
58473;BME280;44775;51.564;5.460;2023-06-14T08:12:17;101411.91;;;23.87;36.12
58473;BME280;44775;51.564;5.460;2023-06-14T08:14:42;101417.28;;;24.10;35.61
58473;BME280;44775;51.564;5.460;2023-06-14T08:17:08;101417.59;;;23.85;36.42
58473;BME280;44775;51.564;5.460;2023-06-14T08:19:33;101416.56;;;23.74;36.81
58473;BME280;44775;51.564;5.460;2023-06-14T08:21:58;101412.31;;;23.55;37.21
58473;BME280;44775;51.564;5.460;2023-06-14T08:24:25;101406.03;;;23.95;34.97
58473;BME280;44775;51.564;5.460;2023-06-14T08:26:55;101406.44;;;24.32;35.67
58473;BME280;44775;51.564;5.460;2023-06-14T08:29:21;101403.25;;;24.52;35.38
58473;BME280;44775;51.564;5.460;2023-06-14T08:31:47;101409.38;;;24.42;35.36
58473;BME280;44775;51.564;5.460;2023-06-14T08:34:12;101408.25;;;24.72;35.32
58473;BME280;44775;51.564;5.460;2023-06-14T08:36:38;101409.34;;;25.10;33.82
58473;BME280;44775;51.564;5.460;2023-06-14T08:39:03;101410.09;;;25.22;32.83
58473;BME280;44775;51.564;5.460;2023-06-14T08:41:29;101415.63;;;25.71;33.31
58473;BME280;44775;51.564;5.460;2023-06-14T08:43:55;101424.88;;;25.65;32.76
58473;BME280;44775;51.564;5.460;2023-06-14T08:46:21;101409.97;;;24.95;34.56
58473;BME280;44775;51.564;5.460;2023-06-14T08:48:48;101411.16;;;25.21;33.14
58473;BME280;44775;51.564;5.460;2023-06-14T08:51:17;101414.13;;;25.36;33.01
58473;BME280;44775;51.564;5.460;2023-06-14T08:53:43;101410.16;;;25.10;34.44
58473;BME280;44775;51.564;5.460;2023-06-14T08:56:09;101411.53;;;25.08;34.55
58473;BME280;44775;51.564;5.460;2023-06-14T08:58:48;101415.44;;;24.95;34.40
58473;BME280;44775;51.564;5.460;2023-06-14T09:01:14;101414.81;;;25.10;34.31
58473;BME280;44775;51.564;5.460;2023-06-14T09:03:42;101412.03;;;25.05;34.74
58473;BME280;44775;51.564;5.460;2023-06-14T09:06:08;101401.63;;;25.07;34.48
58473;BME280;44775;51.564;5.460;2023-06-14T09:08:40;101416.13;;;25.07;32.87
58473;BME280;44775;51.564;5.460;2023-06-14T09:11:06;101418.19;;;25.34;33.02
58473;BME280;44775;51.564;5.460;2023-06-14T09:13:31;101409.13;;;25.77;33.22
58473;BME280;44775;51.564;5.460;2023-06-14T09:15:57;101412.59;;;25.46;33.47
58473;BME280;44775;51.564;5.460;2023-06-14T09:18:34;101412.19;;;25.15;33.63
58473;BME280;44775;51.564;5.460;2023-06-14T09:20:59;101410.16;;;25.10;33.18
58473;BME280;44775;51.564;5.460;2023-06-14T09:23:25;101411.28;;;25.48;30.31
58473;BME280;44775;51.564;5.460;2023-06-14T09:25:50;101409.53;;;25.64;33.63
58473;BME280;44775;51.564;5.460;2023-06-14T09:28:15;101411.50;;;25.68;33.60
58473;BME280;44775;51.564;5.460;2023-06-14T09:30:41;101421.41;;;25.75;31.53
58473;BME280;44775;51.564;5.460;2023-06-14T09:33:06;101421.06;;;25.66;28.34
58473;BME280;44775;51.564;5.460;2023-06-14T09:35:32;101418.31;;;25.66;33.16
58473;BME280;44775;51.564;5.460;2023-06-14T09:37:57;101422.78;;;25.72;31.48
58473;BME280;44775;51.564;5.460;2023-06-14T09:40:23;101422.25;;;26.24;28.90
58473;BME280;44775;51.564;5.460;2023-06-14T09:42:49;101436.50;;;25.77;32.31
58473;BME280;44775;51.564;5.460;2023-06-14T09:45:15;101431.38;;;26.03;31.05
58473;BME280;44775;51.564;5.460;2023-06-14T09:47:45;101435.56;;;25.66;31.31
58473;BME280;44775;51.564;5.460;2023-06-14T09:50:11;101430.88;;;25.84;31.85
58473;BME280;44775;51.564;5.460;2023-06-14T09:52:36;101425.25;;;25.74;31.38
58473;BME280;44775;51.564;5.460;2023-06-14T09:55:07;101423.91;;;25.76;31.89
58473;BME280;44775;51.564;5.460;2023-06-14T09:57:37;101435.81;;;26.36;31.54
58473;BME280;44775;51.564;5.460;2023-06-14T10:00:06;101431.00;;;26.48;28.45
58473;BME280;44775;51.564;5.460;2023-06-14T10:02:36;101434.88;;;26.52;30.24
58473;BME280;44775;51.564;5.460;2023-06-14T10:05:07;101431.69;;;26.66;28.23
58473;BME280;44775;51.564;5.460;2023-06-14T10:07:52;101428.25;;;26.48;30.99
58473;BME280;44775;51.564;5.460;2023-06-14T10:10:19;101410.69;;;27.19;27.27
58473;BME280;44775;51.564;5.460;2023-06-14T10:12:44;101424.56;;;27.49;26.32
58473;BME280;44775;51.564;5.460;2023-06-14T10:15:18;101419.09;;;27.54;30.49
58473;BME280;44775;51.564;5.460;2023-06-14T10:17:56;101410.00;;;27.49;27.22
58473;BME280;44775;51.564;5.460;2023-06-14T10:23:07;101417.06;;;26.87;31.63
58473;BME280;44775;51.564;5.460;2023-06-14T10:25:35;101419.28;;;26.95;28.93
58473;BME280;44775;51.564;5.460;2023-06-14T10:28:14;101409.00;;;27.13;29.98
58473;BME280;44775;51.564;5.460;2023-06-14T10:31:05;101420.16;;;27.48;30.14
58473;BME280;44775;51.564;5.460;2023-06-14T10:33:50;101422.44;;;27.72;30.06
58473;BME280;44775;51.564;5.460;2023-06-14T10:36:30;101425.84;;;27.99;26.73
58473;BME280;44775;51.564;5.460;2023-06-14T10:39:05;101424.09;;;27.68;28.50
58473;BME280;44775;51.564;5.460;2023-06-14T10:41:34;101414.28;;;27.82;30.33
58473;BME280;44775;51.564;5.460;2023-06-14T10:46:37;101411.00;;;27.90;29.34
58473;BME280;44775;51.564;5.460;2023-06-14T10:49:03;101428.03;;;27.92;30.19
58473;BME280;44775;51.564;5.460;2023-06-14T10:51:29;101433.09;;;28.57;25.60
58473;BME280;44775;51.564;5.460;2023-06-14T10:53:56;101427.03;;;28.50;28.67
58473;BME280;44775;51.564;5.460;2023-06-14T10:58:54;101419.59;;;28.45;27.64
58473;BME280;44775;51.564;5.460;2023-06-14T11:01:32;101426.94;;;29.31;23.97
58473;BME280;44775;51.564;5.460;2023-06-14T11:04:07;101419.31;;;28.72;26.49
58473;BME280;44775;51.564;5.460;2023-06-14T11:06:48;101424.09;;;29.57;24.61
58473;BME280;44775;51.564;5.460;2023-06-14T11:09:27;101427.78;;;29.22;27.43
58473;BME280;44775;51.564;5.460;2023-06-14T11:12:00;101425.53;;;29.39;27.32
58473;BME280;44775;51.564;5.460;2023-06-14T11:14:30;101419.50;;;29.37;25.89
58473;BME280;44775;51.564;5.460;2023-06-14T11:16:55;101418.25;;;28.63;28.81
58473;BME280;44775;51.564;5.460;2023-06-14T11:19:21;101414.06;;;28.09;29.81
58473;BME280;44775;51.564;5.460;2023-06-14T11:21:48;101414.56;;;27.91;27.90
58473;BME280;44775;51.564;5.460;2023-06-14T11:24:13;101407.47;;;28.15;30.34
58473;BME280;44775;51.564;5.460;2023-06-14T11:26:40;101403.88;;;28.10;29.77
58473;BME280;44775;51.564;5.460;2023-06-14T11:29:05;101409.19;;;28.52;28.85
58473;BME280;44775;51.564;5.460;2023-06-14T11:31:30;101417.69;;;28.61;24.19
58473;BME280;44775;51.564;5.460;2023-06-14T11:33:57;101397.03;;;28.17;28.56
58473;BME280;44775;51.564;5.460;2023-06-14T11:36:26;101409.25;;;27.74;30.05
58473;BME280;44775;51.564;5.460;2023-06-14T11:39:00;101406.09;;;28.02;29.79
58473;BME280;44775;51.564;5.460;2023-06-14T11:41:52;101401.66;;;27.96;30.12
58473;BME280;44775;51.564;5.460;2023-06-14T11:44:17;101409.06;;;27.23;30.98
58473;BME280;44775;51.564;5.460;2023-06-14T11:46:42;101402.88;;;27.48;30.80
58473;BME280;44775;51.564;5.460;2023-06-14T11:49:08;101405.41;;;27.65;30.73
58473;BME280;44775;51.564;5.460;2023-06-14T11:51:34;101403.00;;;27.84;27.21
58473;BME280;44775;51.564;5.460;2023-06-14T11:54:01;101404.56;;;27.59;30.56
58473;BME280;44775;51.564;5.460;2023-06-14T11:56:27;101401.41;;;28.13;29.49
58473;BME280;44775;51.564;5.460;2023-06-14T11:58:53;101397.75;;;27.72;30.64
58473;BME280;44775;51.564;5.460;2023-06-14T12:01:21;101403.94;;;28.56;27.09
58473;BME280;44775;51.564;5.460;2023-06-14T12:03:50;101411.06;;;29.03;28.39
58473;BME280;44775;51.564;5.460;2023-06-14T12:06:17;101402.78;;;29.08;28.30
58473;BME280;44775;51.564;5.460;2023-06-14T12:08:50;101397.78;;;29.30;27.18
58473;BME280;44775;51.564;5.460;2023-06-14T12:11:16;101399.28;;;29.67;26.44
58473;BME280;44775;51.564;5.460;2023-06-14T12:13:42;101410.97;;;29.28;28.48
58473;BME280;44775;51.564;5.460;2023-06-14T12:16:08;101403.38;;;28.79;27.83
58473;BME280;44775;51.564;5.460;2023-06-14T12:18:35;101394.25;;;28.94;26.59
58473;BME280;44775;51.564;5.460;2023-06-14T12:21:04;101399.84;;;29.64;25.38
58473;BME280;44775;51.564;5.460;2023-06-14T12:23:39;101399.88;;;29.54;27.00
58473;BME280;44775;51.564;5.460;2023-06-14T12:26:05;101399.66;;;29.35;28.01
58473;BME280;44775;51.564;5.460;2023-06-14T12:28:31;101399.78;;;28.84;27.24
58473;BME280;44775;51.564;5.460;2023-06-14T12:30:56;101403.38;;;28.79;27.18
58473;BME280;44775;51.564;5.460;2023-06-14T12:33:24;101401.69;;;28.93;29.14
58473;BME280;44775;51.564;5.460;2023-06-14T12:35:50;101397.88;;;28.64;29.47
58473;BME280;44775;51.564;5.460;2023-06-14T12:38:15;101401.94;;;27.95;30.33
58473;BME280;44775;51.564;5.460;2023-06-14T12:40:41;101402.78;;;27.95;30.76
58473;BME280;44775;51.564;5.460;2023-06-14T12:43:07;101407.19;;;28.07;29.35
58473;BME280;44775;51.564;5.460;2023-06-14T12:45:32;101405.59;;;28.52;29.70
58473;BME280;44775;51.564;5.460;2023-06-14T12:47:58;101397.91;;;28.48;29.67
58473;BME280;44775;51.564;5.460;2023-06-14T12:50:23;101413.78;;;29.13;22.72
58473;BME280;44775;51.564;5.460;2023-06-14T12:52:48;101416.78;;;29.27;23.88
58473;BME280;44775;51.564;5.460;2023-06-14T12:55:14;101412.72;;;28.68;29.10
58473;BME280;44775;51.564;5.460;2023-06-14T12:57:39;101406.44;;;28.62;29.15